Terminal Aerodrome Forecast
Issued by NWS Topeka, KS

Home | Current Version | Previous Version | Graphics & Text | Print | Product List | Glossary On
Versions: 1 2 3 4 5 6 7 8 9 10 11 12 13 14 15
000
FTUS43 KTOP 130535
TAFTOP
TAF
KTOP 130535Z 1306/1406 21006KT P6SM SKC WS014/33040KT
     FM131400 28011KT P6SM FEW250
     FM131700 31016G26KT P6SM FEW250
     FM140000 33010KT P6SM FEW250=

USA.gov is the U.S. government's official web portal to all federal, state and local government web resources and services.